Allouez, Michigan
Current Conditions -  °F | °C
As of 1:53 PM on Friday 24 Oct 2014 (Local Time) from KCMX Reporting Station
Clear Clear  
Wind Chill: 56°   Ceiling: Unl
Heat Index: 56°   Visibility: 10mi
Dew Point: 46°   Wind: 8mph
Humidity: 69%   Direction: 160°SSE
Pressure: 29.84"   Gusts: NA
Location:  47.29°N, 88.41°W
Report Text: KCMX 241753Z AUTO 16007KT 10SM CLR 13/08 A2984 RMK AO2 SLP108 T01330078 10133 20072 58021
Loading
Personal Weather Stations






























Interactive Weather Map
Tropical Storm Tracking
New forecast layout! Learn more

10-Day Weather Forecast

Advertisements
Track Severe Weather on mobile